sensor_id;sensor_type;location;lat;lon;timestamp;pressure;altitude;pressure_sealevel;temperature;humidity
37634;BME280;32048;49.902;22.508;2023-06-19T00:00:52;98669.13;;;12.31;100.00
37634;BME280;32048;49.902;22.508;2023-06-19T00:03:36;98674.25;;;12.34;100.00
37634;BME280;32048;49.902;22.508;2023-06-19T00:06:03;98669.81;;;12.34;100.00
37634;BME280;32048;49.902;22.508;2023-06-19T00:08:30;98678.69;;;12.33;100.00
37634;BME280;32048;49.902;22.508;2023-06-19T00:10:57;98680.59;;;12.31;100.00
37634;BME280;32048;49.902;22.508;2023-06-19T00:13:24;98686.81;;;12.30;100.00
37634;BME280;32048;49.902;22.508;2023-06-19T00:15:51;98678.09;;;12.28;100.00
37634;BME280;32048;49.902;22.508;2023-06-19T00:18:19;98677.19;;;12.29;100.00
37634;BME280;32048;49.902;22.508;2023-06-19T00:20:46;98680.66;;;12.30;100.00
37634;BME280;32048;49.902;22.508;2023-06-19T00:23:13;98679.06;;;12.27;100.00
37634;BME280;32048;49.902;22.508;2023-06-19T00:25:43;98677.25;;;12.27;100.00
37634;BME280;32048;49.902;22.508;2023-06-19T00:28:11;98672.81;;;12.28;100.00
37634;BME280;32048;49.902;22.508;2023-06-19T00:30:41;98673.00;;;12.25;100.00
37634;BME280;32048;49.902;22.508;2023-06-19T00:33:08;98681.78;;;12.25;100.00
37634;BME280;32048;49.902;22.508;2023-06-19T00:35:35;98677.63;;;12.21;100.00
37634;BME280;32048;49.902;22.508;2023-06-19T00:38:02;98678.66;;;12.19;100.00
37634;BME280;32048;49.902;22.508;2023-06-19T00:40:31;98678.50;;;12.22;100.00
37634;BME280;32048;49.902;22.508;2023-06-19T00:42:59;98681.03;;;12.23;100.00
37634;BME280;32048;49.902;22.508;2023-06-19T00:45:27;98681.16;;;12.22;100.00
37634;BME280;32048;49.902;22.508;2023-06-19T00:47:55;98683.13;;;12.18;100.00
37634;BME280;32048;49.902;22.508;2023-06-19T00:50:23;98681.31;;;12.19;100.00
37634;BME280;32048;49.902;22.508;2023-06-19T00:52:52;98670.44;;;12.23;100.00
37634;BME280;32048;49.902;22.508;2023-06-19T00:55:19;98674.69;;;12.26;100.00
37634;BME280;32048;49.902;22.508;2023-06-19T00:57:46;98667.78;;;12.23;100.00
37634;BME280;32048;49.902;22.508;2023-06-19T01:00:13;98665.16;;;12.23;100.00
37634;BME280;32048;49.902;22.508;2023-06-19T01:02:40;98660.97;;;12.19;100.00
37634;BME280;32048;49.902;22.508;2023-06-19T01:05:08;98667.16;;;12.20;100.00
37634;BME280;32048;49.902;22.508;2023-06-19T01:08:00;98669.97;;;12.17;100.00
37634;BME280;32048;49.902;22.508;2023-06-19T01:10:36;98662.13;;;12.15;100.00
37634;BME280;32048;49.902;22.508;2023-06-19T01:13:10;98661.19;;;12.16;100.00
37634;BME280;32048;49.902;22.508;2023-06-19T01:15:39;98657.84;;;12.13;100.00
37634;BME280;32048;49.902;22.508;2023-06-19T01:18:08;98665.03;;;12.11;100.00
37634;BME280;32048;49.902;22.508;2023-06-19T01:20:38;98669.59;;;12.09;100.00
37634;BME280;32048;49.902;22.508;2023-06-19T01:23:09;98662.66;;;12.06;100.00
37634;BME280;32048;49.902;22.508;2023-06-19T01:25:36;98668.97;;;12.03;100.00
37634;BME280;32048;49.902;22.508;2023-06-19T01:28:05;98664.66;;;12.02;100.00
37634;BME280;32048;49.902;22.508;2023-06-19T01:30:37;98675.16;;;12.04;100.00
37634;BME280;32048;49.902;22.508;2023-06-19T01:35:42;98671.75;;;12.02;100.00
37634;BME280;32048;49.902;22.508;2023-06-19T01:38:11;98675.50;;;11.98;100.00
37634;BME280;32048;49.902;22.508;2023-06-19T01:40:40;98674.75;;;11.96;100.00
37634;BME280;32048;49.902;22.508;2023-06-19T01:43:08;98672.75;;;11.99;100.00
37634;BME280;32048;49.902;22.508;2023-06-19T01:45:36;98676.53;;;11.95;100.00
37634;BME280;32048;49.902;22.508;2023-06-19T01:48:04;98675.66;;;11.95;100.00
37634;BME280;32048;49.902;22.508;2023-06-19T01:50:31;98680.81;;;11.98;100.00
37634;BME280;32048;49.902;22.508;2023-06-19T01:52:58;98679.84;;;11.99;100.00
37634;BME280;32048;49.902;22.508;2023-06-19T01:55:25;98689.50;;;12.00;100.00
37634;BME280;32048;49.902;22.508;2023-06-19T01:57:52;98680.97;;;11.95;100.00
37634;BME280;32048;49.902;22.508;2023-06-19T02:00:19;98680.97;;;11.95;100.00
37634;BME280;32048;49.902;22.508;2023-06-19T02:02:47;98688.06;;;11.94;100.00
37634;BME280;32048;49.902;22.508;2023-06-19T02:05:14;98684.00;;;11.89;100.00
37634;BME280;32048;49.902;22.508;2023-06-19T02:07:42;98683.13;;;11.88;100.00
37634;BME280;32048;49.902;22.508;2023-06-19T02:10:09;98683.03;;;11.90;100.00
37634;BME280;32048;49.902;22.508;2023-06-19T02:12:36;98684.84;;;11.89;100.00
37634;BME280;32048;49.902;22.508;2023-06-19T02:15:04;98686.53;;;11.90;100.00
37634;BME280;32048;49.902;22.508;2023-06-19T02:17:31;98688.31;;;11.90;100.00
37634;BME280;32048;49.902;22.508;2023-06-19T02:19:58;98684.03;;;11.87;100.00
37634;BME280;32048;49.902;22.508;2023-06-19T02:22:25;98687.47;;;11.89;100.00
37634;BME280;32048;49.902;22.508;2023-06-19T02:24:52;98688.31;;;11.90;100.00
37634;BME280;32048;49.902;22.508;2023-06-19T02:27:19;98680.31;;;11.91;100.00
37634;BME280;32048;49.902;22.508;2023-06-19T02:29:46;98683.13;;;11.88;100.00
37634;BME280;32048;49.902;22.508;2023-06-19T02:32:14;98687.63;;;11.86;100.00
37634;BME280;32048;49.902;22.508;2023-06-19T02:34:41;98688.41;;;11.88;100.00
37634;BME280;32048;49.902;22.508;2023-06-19T02:37:08;98693.78;;;11.86;100.00
37634;BME280;32048;49.902;22.508;2023-06-19T02:39:35;98690.38;;;11.84;100.00
37634;BME280;32048;49.902;22.508;2023-06-19T02:42:02;98694.13;;;11.80;100.00
37634;BME280;32048;49.902;22.508;2023-06-19T02:44:29;98700.72;;;11.73;100.00
37634;BME280;32048;49.902;22.508;2023-06-19T02:46:57;98695.00;;;11.65;100.00
37634;BME280;32048;49.902;22.508;2023-06-19T02:49:24;98708.50;;;11.60;100.00
37634;BME280;32048;49.902;22.508;2023-06-19T02:51:51;98699.97;;;11.55;100.00
37634;BME280;32048;49.902;22.508;2023-06-19T02:54:18;98696.63;;;11.52;100.00
37634;BME280;32048;49.902;22.508;2023-06-19T02:56:45;98696.63;;;11.52;100.00
37634;BME280;32048;49.902;22.508;2023-06-19T02:59:12;98696.56;;;11.53;100.00
37634;BME280;32048;49.902;22.508;2023-06-19T03:01:39;98692.03;;;11.55;100.00
37634;BME280;32048;49.902;22.508;2023-06-19T03:04:06;98695.53;;;11.56;100.00
37634;BME280;32048;49.902;22.508;2023-06-19T03:06:33;98688.38;;;11.58;100.00
37634;BME280;32048;49.902;22.508;2023-06-19T03:09:06;98694.34;;;11.61;100.00
37634;BME280;32048;49.902;22.508;2023-06-19T03:11:39;98691.50;;;11.64;100.00
37634;BME280;32048;49.902;22.508;2023-06-19T03:14:06;98693.13;;;11.67;100.00
37634;BME280;32048;49.902;22.508;2023-06-19T03:16:34;98700.97;;;11.69;100.00
37634;BME280;32048;49.902;22.508;2023-06-19T03:19:02;98701.75;;;11.71;100.00
37634;BME280;32048;49.902;22.508;2023-06-19T03:21:29;98703.38;;;11.73;100.00
37634;BME280;32048;49.902;22.508;2023-06-19T03:23:56;98703.19;;;11.76;100.00
37634;BME280;32048;49.902;22.508;2023-06-19T03:26:23;98703.03;;;11.79;100.00
37634;BME280;32048;49.902;22.508;2023-06-19T03:28:51;98701.09;;;11.81;100.00
37634;BME280;32048;49.902;22.508;2023-06-19T03:31:19;98710.56;;;11.85;100.00
37634;BME280;32048;49.902;22.508;2023-06-19T03:33:46;98714.88;;;11.88;100.00
37634;BME280;32048;49.902;22.508;2023-06-19T03:36:13;98701.38;;;11.93;100.00
37634;BME280;32048;49.902;22.508;2023-06-19T03:38:40;98709.81;;;11.99;100.00
37634;BME280;32048;49.902;22.508;2023-06-19T03:41:08;98707.75;;;12.04;100.00
37634;BME280;32048;49.902;22.508;2023-06-19T03:43:35;98707.28;;;12.12;100.00
37634;BME280;32048;49.902;22.508;2023-06-19T03:46:02;98710.44;;;12.19;100.00
37634;BME280;32048;49.902;22.508;2023-06-19T03:48:29;98709.72;;;12.31;100.00
37634;BME280;32048;49.902;22.508;2023-06-19T03:50:56;98706.69;;;12.37;100.00
37634;BME280;32048;49.902;22.508;2023-06-19T03:53:23;98706.31;;;12.43;100.00
37634;BME280;32048;49.902;22.508;2023-06-19T03:55:50;98704.16;;;12.50;100.00
37634;BME280;32048;49.902;22.508;2023-06-19T03:58:19;98706.16;;;12.61;100.00
37634;BME280;32048;49.902;22.508;2023-06-19T04:00:46;98715.81;;;12.76;100.00
37634;BME280;32048;49.902;22.508;2023-06-19T04:03:13;98712.38;;;12.88;100.00
37634;BME280;32048;49.902;22.508;2023-06-19T04:05:40;98708.13;;;13.00;100.00
37634;BME280;32048;49.902;22.508;2023-06-19T04:08:08;98715.22;;;13.14;100.00
37634;BME280;32048;49.902;22.508;2023-06-19T04:10:36;98714.25;;;13.29;100.00
37634;BME280;32048;49.902;22.508;2023-06-19T04:13:03;98714.34;;;13.42;100.00
37634;BME280;32048;49.902;22.508;2023-06-19T04:15:30;98713.56;;;13.55;100.00
37634;BME280;32048;49.902;22.508;2023-06-19T04:17:58;98713.50;;;13.69;100.00
37634;BME280;32048;49.902;22.508;2023-06-19T04:20:27;98718.84;;;13.82;100.00
37634;BME280;32048;49.902;22.508;2023-06-19T04:22:55;98704.75;;;13.94;100.00
37634;BME280;32048;49.902;22.508;2023-06-19T04:25:22;98714.88;;;14.14;100.00
37634;BME280;32048;49.902;22.508;2023-06-19T04:27:49;98719.59;;;14.37;100.00
37634;BME280;32048;49.902;22.508;2023-06-19T04:30:16;98713.38;;;14.63;100.00
37634;BME280;32048;49.902;22.508;2023-06-19T04:32:43;98721.97;;;14.92;100.00
37634;BME280;32048;49.902;22.508;2023-06-19T04:35:10;98720.75;;;15.22;100.00
37634;BME280;32048;49.902;22.508;2023-06-19T04:37:37;98719.63;;;15.50;100.00
37634;BME280;32048;49.902;22.508;2023-06-19T04:40:05;98730.84;;;15.79;100.00
37634;BME280;32048;49.902;22.508;2023-06-19T04:42:34;98735.19;;;16.05;100.00
37634;BME280;32048;49.902;22.508;2023-06-19T04:45:01;98743.16;;;16.29;100.00
37634;BME280;32048;49.902;22.508;2023-06-19T04:47:28;98741.84;;;16.46;100.00
37634;BME280;32048;49.902;22.508;2023-06-19T04:50:09;98741.66;;;16.60;100.00
37634;BME280;32048;49.902;22.508;2023-06-19T04:52:36;98746.75;;;16.63;100.00
37634;BME280;32048;49.902;22.508;2023-06-19T04:55:05;98750.00;;;16.55;100.00
37634;BME280;32048;49.902;22.508;2023-06-19T04:57:33;98752.78;;;16.54;100.00
37634;BME280;32048;49.902;22.508;2023-06-19T05:00:00;98752.78;;;16.54;100.00
37634;BME280;32048;49.902;22.508;2023-06-19T05:02:27;98756.28;;;16.54;100.00
37634;BME280;32048;49.902;22.508;2023-06-19T05:04:54;98760.03;;;16.52;100.00
37634;BME280;32048;49.902;22.508;2023-06-19T05:07:21;98747.34;;;16.55;100.00
37634;BME280;32048;49.902;22.508;2023-06-19T05:09:48;98751.13;;;16.64;100.00
37634;BME280;32048;49.902;22.508;2023-06-19T05:12:15;98752.97;;;16.75;100.00
37634;BME280;32048;49.902;22.508;2023-06-19T05:14:42;98747.31;;;16.91;100.00
37634;BME280;32048;49.902;22.508;2023-06-19T05:17:09;98758.22;;;17.10;100.00
37634;BME280;32048;49.902;22.508;2023-06-19T05:19:36;98748.78;;;17.40;100.00
37634;BME280;32048;49.902;22.508;2023-06-19T05:22:03;98757.44;;;17.76;100.00
37634;BME280;32048;49.902;22.508;2023-06-19T05:24:31;98754.53;;;18.11;100.00
37634;BME280;32048;49.902;22.508;2023-06-19T05:26:58;98762.94;;;18.60;100.00
37634;BME280;32048;49.902;22.508;2023-06-19T05:29:25;98756.38;;;19.06;100.00
37634;BME280;32048;49.902;22.508;2023-06-19T05:31:52;98755.00;;;19.62;100.00
37634;BME280;32048;49.902;22.508;2023-06-19T05:34:19;98758.78;;;20.09;100.00
37634;BME280;32048;49.902;22.508;2023-06-19T05:36:46;98756.50;;;20.53;96.69
37634;BME280;32048;49.902;22.508;2023-06-19T05:39:14;98764.25;;;20.86;93.59
37634;BME280;32048;49.902;22.508;2023-06-19T05:41:41;98756.00;;;21.07;92.04
37634;BME280;32048;49.902;22.508;2023-06-19T05:44:08;98763.94;;;21.36;91.46
37634;BME280;32048;49.902;22.508;2023-06-19T05:46:36;98765.03;;;21.53;85.79
37634;BME280;32048;49.902;22.508;2023-06-19T05:49:03;98764.59;;;21.57;84.76
37634;BME280;32048;49.902;22.508;2023-06-19T05:51:30;98764.75;;;21.74;86.56
37634;BME280;32048;49.902;22.508;2023-06-19T05:53:57;98761.13;;;21.93;83.77
37634;BME280;32048;49.902;22.508;2023-06-19T05:56:30;98764.25;;;22.06;85.47
37634;BME280;32048;49.902;22.508;2023-06-19T05:59:00;98768.19;;;22.12;80.68
37634;BME280;32048;49.902;22.508;2023-06-19T06:01:29;98767.22;;;22.31;84.41
37634;BME280;32048;49.902;22.508;2023-06-19T06:03:57;98769.75;;;22.50;80.01
37634;BME280;32048;49.902;22.508;2023-06-19T06:06:24;98762.94;;;22.64;79.12
37634;BME280;32048;49.902;22.508;2023-06-19T06:08:53;98766.69;;;22.89;80.41
37634;BME280;32048;49.902;22.508;2023-06-19T06:11:22;98764.84;;;23.16;75.98
37634;BME280;32048;49.902;22.508;2023-06-19T06:13:49;98761.56;;;23.30;74.40
37634;BME280;32048;49.902;22.508;2023-06-19T06:16:16;98765.34;;;23.54;75.46
37634;BME280;32048;49.902;22.508;2023-06-19T06:18:45;98766.88;;;23.99;74.90
37634;BME280;32048;49.902;22.508;2023-06-19T06:21:12;98763.59;;;24.38;71.50
37634;BME280;32048;49.902;22.508;2023-06-19T06:23:43;98768.50;;;24.67;70.48
37634;BME280;32048;49.902;22.508;2023-06-19T06:26:11;98768.13;;;24.86;67.03
37634;BME280;32048;49.902;22.508;2023-06-19T06:28:39;98770.19;;;24.76;63.87
37634;BME280;32048;49.902;22.508;2023-06-19T06:31:06;98764.78;;;24.68;67.12
37634;BME280;32048;49.902;22.508;2023-06-19T06:33:34;98771.72;;;24.62;66.21
37634;BME280;32048;49.902;22.508;2023-06-19T06:36:01;98765.78;;;24.75;69.53
37634;BME280;32048;49.902;22.508;2023-06-19T06:38:28;98770.34;;;24.75;68.24
37634;BME280;32048;49.902;22.508;2023-06-19T06:40:55;98766.13;;;24.72;69.94
37634;BME280;32048;49.902;22.508;2023-06-19T06:43:22;98771.69;;;24.79;68.25
37634;BME280;32048;49.902;22.508;2023-06-19T06:45:49;98773.03;;;24.91;69.71
37634;BME280;32048;49.902;22.508;2023-06-19T06:48:17;98780.28;;;25.07;66.69
37634;BME280;32048;49.902;22.508;2023-06-19T06:50:43;98773.97;;;25.31;68.01
37634;BME280;32048;49.902;22.508;2023-06-19T06:53:11;98785.84;;;25.69;65.08
37634;BME280;32048;49.902;22.508;2023-06-19T06:55:37;98784.03;;;26.01;62.93
37634;BME280;32048;49.902;22.508;2023-06-19T06:58:05;98788.22;;;26.35;64.21
37634;BME280;32048;49.902;22.508;2023-06-19T07:00:32;98791.44;;;26.53;60.08
37634;BME280;32048;49.902;22.508;2023-06-19T07:02:59;98786.03;;;26.77;62.25
37634;BME280;32048;49.902;22.508;2023-06-19T07:05:26;98784.31;;;26.99;62.11
37634;BME280;32048;49.902;22.508;2023-06-19T07:07:55;98787.72;;;27.30;55.64
37634;BME280;32048;49.902;22.508;2023-06-19T07:10:22;98779.59;;;27.45;52.39
37634;BME280;32048;49.902;22.508;2023-06-19T07:12:51;98774.53;;;27.57;52.55
37634;BME280;32048;49.902;22.508;2023-06-19T07:15:18;98782.00;;;27.85;54.16
37634;BME280;32048;49.902;22.508;2023-06-19T07:17:46;98775.56;;;28.22;51.87
37634;BME280;32048;49.902;22.508;2023-06-19T07:20:14;98780.75;;;28.60;50.11
37634;BME280;32048;49.902;22.508;2023-06-19T07:22:42;98782.06;;;28.92;47.68
37634;BME280;32048;49.902;22.508;2023-06-19T07:25:11;98783.00;;;29.34;48.17
37634;BME280;32048;49.902;22.508;2023-06-19T07:27:42;98776.09;;;29.67;46.41
37634;BME280;32048;49.902;22.508;2023-06-19T07:30:09;98781.44;;;29.95;48.38
37634;BME280;32048;49.902;22.508;2023-06-19T07:32:41;98772.31;;;30.16;45.35
37634;BME280;32048;49.902;22.508;2023-06-19T07:35:08;98777.81;;;30.29;44.36
37634;BME280;32048;49.902;22.508;2023-06-19T07:37:36;98769.78;;;30.08;43.88
37634;BME280;32048;49.902;22.508;2023-06-19T07:40:03;98771.59;;;29.87;44.95
37634;BME280;32048;49.902;22.508;2023-06-19T07:42:30;98773.22;;;29.75;45.11
37634;BME280;32048;49.902;22.508;2023-06-19T07:44:57;98773.84;;;29.77;44.80
37634;BME280;32048;49.902;22.508;2023-06-19T07:47:26;98766.38;;;29.57;45.53
37634;BME280;32048;49.902;22.508;2023-06-19T07:49:53;98768.00;;;29.73;44.89
37634;BME280;32048;49.902;22.508;2023-06-19T07:52:20;98773.81;;;30.25;45.61
37634;BME280;32048;49.902;22.508;2023-06-19T07:54:52;98780.63;;;30.96;44.62
37634;BME280;32048;49.902;22.508;2023-06-19T07:57:21;98772.47;;;31.74;42.50
37634;BME280;32048;49.902;22.508;2023-06-19T07:59:49;98770.56;;;32.26;38.53
37634;BME280;32048;49.902;22.508;2023-06-19T08:02:16;98775.97;;;31.95;39.92
37634;BME280;32048;49.902;22.508;2023-06-19T08:04:45;98775.34;;;31.99;38.31
37634;BME280;32048;49.902;22.508;2023-06-19T08:07:12;98775.75;;;31.96;37.75
37634;BME280;32048;49.902;22.508;2023-06-19T08:09:39;98772.31;;;32.46;38.48
37634;BME280;32048;49.902;22.508;2023-06-19T08:12:07;98770.31;;;32.91;37.45
37634;BME280;32048;49.902;22.508;2023-06-19T08:14:34;98770.50;;;33.40;36.24
37634;BME280;32048;49.902;22.508;2023-06-19T08:17:01;98767.75;;;33.95;36.41
37634;BME280;32048;49.902;22.508;2023-06-19T08:19:28;98772.88;;;34.52;36.22
37634;BME280;32048;49.902;22.508;2023-06-19T08:21:55;98781.34;;;35.05;35.03
37634;BME280;32048;49.902;22.508;2023-06-19T08:24:22;98775.09;;;35.56;34.95
37634;BME280;32048;49.902;22.508;2023-06-19T08:26:50;98768.91;;;36.01;32.31
37634;BME280;32048;49.902;22.508;2023-06-19T08:29:18;98772.81;;;36.17;32.11
37634;BME280;32048;49.902;22.508;2023-06-19T08:31:45;98768.88;;;36.13;30.55
37634;BME280;32048;49.902;22.508;2023-06-19T08:34:12;98777.56;;;36.22;30.92
37634;BME280;32048;49.902;22.508;2023-06-19T08:36:40;98773.53;;;36.41;30.25
37634;BME280;32048;49.902;22.508;2023-06-19T08:39:07;98768.19;;;36.52;31.41
37634;BME280;32048;49.902;22.508;2023-06-19T08:41:38;98766.63;;;36.56;31.21
37634;BME280;32048;49.902;22.508;2023-06-19T08:44:05;98770.84;;;37.09;30.55
37634;BME280;32048;49.902;22.508;2023-06-19T08:46:33;98760.34;;;37.45;30.13
37634;BME280;32048;49.902;22.508;2023-06-19T08:49:01;98770.81;;;37.87;29.26
37634;BME280;32048;49.902;22.508;2023-06-19T08:51:29;98768.94;;;37.93;28.61
37634;BME280;32048;49.902;22.508;2023-06-19T08:54:01;98764.16;;;37.83;29.42
37634;BME280;32048;49.902;22.508;2023-06-19T08:56:31;98759.84;;;37.92;28.88
37634;BME280;32048;49.902;22.508;2023-06-19T08:59:10;98757.59;;;38.11;28.25
37634;BME280;32048;49.902;22.508;2023-06-19T09:01:37;98764.41;;;38.53;27.59
37634;BME280;32048;49.902;22.508;2023-06-19T09:04:11;98760.44;;;38.76;27.21
37634;BME280;32048;49.902;22.508;2023-06-19T09:09:20;98757.88;;;38.64;27.32
37634;BME280;32048;49.902;22.508;2023-06-19T09:14:35;98754.75;;;37.40;30.01
37634;BME280;32048;49.902;22.508;2023-06-19T09:17:07;98755.47;;;35.88;32.18
37634;BME280;32048;49.902;22.508;2023-06-19T09:19:37;98757.06;;;34.66;34.27
37634;BME280;32048;49.902;22.508;2023-06-19T09:22:07;98755.00;;;33.52;35.86
37634;BME280;32048;49.902;22.508;2023-06-19T09:24:39;98750.28;;;32.41;37.44
37634;BME280;32048;49.902;22.508;2023-06-19T09:27:12;98754.19;;;31.75;40.10
37634;BME280;32048;49.902;22.508;2023-06-19T09:29:41;98753.28;;;31.94;39.18
37634;BME280;32048;49.902;22.508;2023-06-19T09:32:18;98759.91;;;32.50;38.12
37634;BME280;32048;49.902;22.508;2023-06-19T09:34:47;98760.22;;;33.36;34.40
37634;BME280;32048;49.902;22.508;2023-06-19T09:37:15;98759.19;;;34.22;32.87
37634;BME280;32048;49.902;22.508;2023-06-19T09:39:42;98757.31;;;35.00;29.53
37634;BME280;32048;49.902;22.508;2023-06-19T09:42:09;98760.50;;;35.79;30.68
37634;BME280;32048;49.902;22.508;2023-06-19T09:44:41;98749.34;;;36.43;29.01
37634;BME280;32048;49.902;22.508;2023-06-19T09:47:18;98752.78;;;36.51;27.21
37634;BME280;32048;49.902;22.508;2023-06-19T09:49:59;98758.34;;;36.85;28.36
37634;BME280;32048;49.902;22.508;2023-06-19T09:52:27;98759.78;;;37.26;27.23
37634;BME280;32048;49.902;22.508;2023-06-19T09:54:55;98766.97;;;37.66;26.51
37634;BME280;32048;49.902;22.508;2023-06-19T09:57:24;98763.00;;;37.57;25.85
37634;BME280;32048;49.902;22.508;2023-06-19T09:59:53;98755.41;;;36.74;27.37
37634;BME280;32048;49.902;22.508;2023-06-19T10:02:22;98746.38;;;36.16;28.12
37634;BME280;32048;49.902;22.508;2023-06-19T10:04:51;98748.50;;;35.97;29.10
37634;BME280;32048;49.902;22.508;2023-06-19T10:07:21;98744.81;;;36.20;28.43
37634;BME280;32048;49.902;22.508;2023-06-19T10:12:44;98742.22;;;36.93;26.44
37634;BME280;32048;49.902;22.508;2023-06-19T10:15:40;98740.63;;;37.31;25.99
37634;BME280;32048;49.902;22.508;2023-06-19T10:18:15;98748.69;;;37.60;27.68
37634;BME280;32048;49.902;22.508;2023-06-19T10:20:44;98737.44;;;37.83;27.03
37634;BME280;32048;49.902;22.508;2023-06-19T10:23:18;98747.81;;;37.76;26.77
37634;BME280;32048;49.902;22.508;2023-06-19T10:28:22;98738.47;;;38.26;26.86
37634;BME280;32048;49.902;22.508;2023-06-19T10:33:21;98748.69;;;38.91;24.94
37634;BME280;32048;49.902;22.508;2023-06-19T10:35:49;98743.63;;;39.15;24.95
37634;BME280;32048;49.902;22.508;2023-06-19T10:38:16;98735.50;;;38.98;24.13
37634;BME280;32048;49.902;22.508;2023-06-19T10:40:44;98727.00;;;37.63;26.12
37634;BME280;32048;49.902;22.508;2023-06-19T10:43:13;98726.19;;;37.07;26.89
37634;BME280;32048;49.902;22.508;2023-06-19T10:45:45;98726.69;;;37.04;26.84
37634;BME280;32048;49.902;22.508;2023-06-19T10:48:18;98734.63;;;36.83;26.28
37634;BME280;32048;49.902;22.508;2023-06-19T10:50:45;98720.56;;;36.80;27.48
37634;BME280;32048;49.902;22.508;2023-06-19T10:53:27;98730.59;;;37.25;27.14
37634;BME280;32048;49.902;22.508;2023-06-19T10:55:56;98730.31;;;37.88;25.93
37634;BME280;32048;49.902;22.508;2023-06-19T10:58:23;98725.88;;;38.09;24.83
37634;BME280;32048;49.902;22.508;2023-06-19T11:00:50;98729.59;;;38.52;26.31
37634;BME280;32048;49.902;22.508;2023-06-19T11:03:21;98718.97;;;37.84;25.44
37634;BME280;32048;49.902;22.508;2023-06-19T11:05:48;98713.22;;;37.63;26.45
37634;BME280;32048;49.902;22.508;2023-06-19T11:08:20;98717.47;;;36.93;26.76
37634;BME280;32048;49.902;22.508;2023-06-19T11:10:48;98711.81;;;36.66;28.38
37634;BME280;32048;49.902;22.508;2023-06-19T11:13:20;98703.94;;;36.41;26.80
37634;BME280;32048;49.902;22.508;2023-06-19T11:15:48;98706.19;;;36.44;27.27
37634;BME280;32048;49.902;22.508;2023-06-19T11:18:18;98702.00;;;36.25;27.41
37634;BME280;32048;49.902;22.508;2023-06-19T11:20:48;98705.09;;;36.28;28.44
37634;BME280;32048;49.902;22.508;2023-06-19T11:23:25;98701.34;;;36.17;26.28
37634;BME280;32048;49.902;22.508;2023-06-19T11:25:52;98704.22;;;35.82;28.68
37634;BME280;32048;49.902;22.508;2023-06-19T11:28:19;98700.00;;;35.51;27.91
37634;BME280;32048;49.902;22.508;2023-06-19T11:30:58;98701.59;;;35.35;28.60
37634;BME280;32048;49.902;22.508;2023-06-19T11:33:25;98693.97;;;35.25;29.68
37634;BME280;32048;49.902;22.508;2023-06-19T11:35:53;98695.44;;;35.16;28.36
37634;BME280;32048;49.902;22.508;2023-06-19T11:38:23;98693.75;;;34.91;29.78
37634;BME280;32048;49.902;22.508;2023-06-19T11:40:52;98691.22;;;35.13;28.68
37634;BME280;32048;49.902;22.508;2023-06-19T11:43:34;98689.16;;;35.44;30.28
37634;BME280;32048;49.902;22.508;2023-06-19T11:46:06;98691.97;;;35.61;29.96
37634;BME280;32048;49.902;22.508;2023-06-19T11:48:36;98687.97;;;35.40;28.95
37634;BME280;32048;49.902;22.508;2023-06-19T11:51:04;98685.38;;;35.22;31.89
37634;BME280;32048;49.902;22.508;2023-06-19T11:53:31;98679.25;;;35.31;30.52
37634;BME280;32048;49.902;22.508;2023-06-19T11:55:58;98686.06;;;35.41;30.06
37634;BME280;32048;49.902;22.508;2023-06-19T11:58:25;98685.00;;;35.18;29.79
37634;BME280;32048;49.902;22.508;2023-06-19T12:00:53;98697.78;;;34.65;29.41
37634;BME280;32048;49.902;22.508;2023-06-19T12:03:20;98687.91;;;34.10;30.46
37634;BME280;32048;49.902;22.508;2023-06-19T12:05:48;98692.72;;;33.48;32.26
37634;BME280;32048;49.902;22.508;2023-06-19T12:08:15;98687.53;;;33.03;32.68
37634;BME280;32048;49.902;22.508;2023-06-19T12:10:42;98692.88;;;32.91;33.28
37634;BME280;32048;49.902;22.508;2023-06-19T12:13:09;98690.63;;;32.88;32.86
37634;BME280;32048;49.902;22.508;2023-06-19T12:15:36;98695.25;;;32.62;33.37
37634;BME280;32048;49.902;22.508;2023-06-19T12:18:04;98692.38;;;32.25;34.90
37634;BME280;32048;49.902;22.508;2023-06-19T12:20:31;98686.72;;;31.88;35.56
37634;BME280;32048;49.902;22.508;2023-06-19T12:22:58;98679.16;;;31.39;35.53
37634;BME280;32048;49.902;22.508;2023-06-19T12:25:25;98690.44;;;30.64;36.44
37634;BME280;32048;49.902;22.508;2023-06-19T12:27:52;98683.44;;;29.95;38.31
37634;BME280;32048;49.902;22.508;2023-06-19T12:30:21;98686.50;;;29.23;40.05
37634;BME280;32048;49.902;22.508;2023-06-19T12:32:49;98694.13;;;29.07;41.32
37634;BME280;32048;49.902;22.508;2023-06-19T12:35:17;98697.91;;;28.77;42.84
37634;BME280;32048;49.902;22.508;2023-06-19T12:37:45;98693.25;;;28.43;44.09
37634;BME280;32048;49.902;22.508;2023-06-19T12:40:12;98688.72;;;28.29;44.23
37634;BME280;32048;49.902;22.508;2023-06-19T12:42:39;98695.84;;;28.08;45.71
37634;BME280;32048;49.902;22.508;2023-06-19T12:45:07;98688.97;;;27.91;47.12
37634;BME280;32048;49.902;22.508;2023-06-19T12:47:35;98683.69;;;27.68;46.80
37634;BME280;32048;49.902;22.508;2023-06-19T12:50:02;98689.38;;;27.36;47.43
37634;BME280;32048;49.902;22.508;2023-06-19T12:52:29;98679.84;;;27.11;49.86
37634;BME280;32048;49.902;22.508;2023-06-19T12:54:57;98683.28;;;26.90;51.21
37634;BME280;32048;49.902;22.508;2023-06-19T12:57:30;98682.69;;;26.65;50.41
37634;BME280;32048;49.902;22.508;2023-06-19T13:00:11;98672.00;;;26.48;52.56
37634;BME280;32048;49.902;22.508;2023-06-19T13:02:41;98671.63;;;26.51;51.73
37634;BME280;32048;49.902;22.508;2023-06-19T13:05:10;98663.84;;;26.71;52.54
37634;BME280;32048;49.902;22.508;2023-06-19T13:07:37;98660.56;;;27.06;47.22